Time;durP1;ratioP1;P1;durP2;ratioP2;P2;SDS_P1;SDS_P2;PMS_P1;PMS_P2;Temp;Humidity;BMP_temperature;BMP_pressure;BME280_temperature;BME280_humidity;BME280_pressure;Samples;Min_cycle;Max_cycle;Signal;HPM_P1;HPM_P2
2022/09/24 00:01:37;;;;;;;18.90;11.23;;;;;;;12.09;100.00;100391.72;7392091;19;20902;-61
2022/09/24 00:04:10;;;;;;;14.30;10.20;;;;;;;11.91;100.00;100394.63;7387561;19;20491;-60
2022/09/24 00:06:43;;;;;;;16.90;11.07;;;;;;;11.69;100.00;100437.88;7396821;19;20401;-58
2022/09/24 00:09:13;;;;;;;27.07;14.30;;;;;;;11.58;100.00;100488.31;7386620;19;20415;-57
2022/09/24 00:11:44;;;;;;;18.50;11.30;;;;;;;11.55;100.00;100545.06;7394990;19;20403;-56
2022/09/24 00:14:14;;;;;;;14.80;10.40;;;;;;;11.46;100.00;100589.56;7395570;19;20426;-59
2022/09/24 00:16:47;;;;;;;16.20;11.20;;;;;;;11.45;100.00;100647.22;7400266;19;20393;-53
2022/09/24 00:19:16;;;;;;;15.53;10.77;;;;;;;11.43;100.00;100679.88;7392703;19;20415;-58
2022/09/24 00:21:46;;;;;;;19.47;12.10;;;;;;;11.44;100.00;100715.22;7399985;19;20383;-59
2022/09/24 00:26:48;;;;;;;16.70;10.80;;;;;;;11.46;100.00;100825.53;7395141;19;20443;-54
2022/09/24 00:27:05;;;;;;;17.67;12.00;;;;;;;11.57;100.00;100863.81;7399867;19;20394;-58
2022/09/24 00:29:35;;;;;;;19.20;12.50;;;;;;;11.52;100.00;100883.41;7392265;19;20438;-56
2022/09/24 00:32:09;;;;;;;17.10;12.50;;;;;;;11.43;100.00;100887.41;7399965;19;20380;-58
2022/09/24 00:34:38;;;;;;;20.00;10.80;;;;;;;11.34;100.00;100903.41;7394869;19;20421;-61
2022/09/24 00:37:08;;;;;;;15.90;10.33;;;;;;;11.29;100.00;100898.88;7399628;19;20428;-58
2022/09/24 00:39:38;;;;;;;15.30;10.37;;;;;;;11.24;100.00;100905.56;7391702;19;20423;-58
2022/09/24 00:42:08;;;;;;;17.07;9.70;;;;;;;11.25;100.00;100925.41;7399314;19;20757;-56
2022/09/24 00:44:56;;;;;;;19.10;10.30;;;;;;;11.24;100.00;100928.81;7394132;19;20424;-58
2022/09/24 00:47:40;;;;;;;15.67;10.47;;;;;;;11.28;100.00;100923.81;7399669;19;20384;-56
2022/09/24 00:50:16;;;;;;;17.00;10.00;;;;;;;11.31;100.00;100923.06;7396189;19;20465;-57
2022/09/24 00:52:49;;;;;;;16.87;9.73;;;;;;;11.31;100.00;100917.91;7395013;19;20385;-59
2022/09/24 00:55:19;;;;;;;12.67;9.83;;;;;;;11.29;100.00;100912.66;7399092;19;20391;-57
2022/09/24 00:57:50;;;;;;;19.77;10.83;;;;;;;11.29;100.00;100899.75;7392865;19;20393;-60
2022/09/24 01:00:20;;;;;;;16.30;10.93;;;;;;;11.29;100.00;100915.25;7398068;19;20391;-56
2022/09/24 01:02:56;;;;;;;18.67;11.90;;;;;;;11.53;100.00;100921.38;7394007;19;20416;-56
2022/09/24 01:05:26;;;;;;;19.60;11.10;;;;;;;11.52;100.00;100923.06;7398666;19;20386;-58
2022/09/24 01:07:56;;;;;;;20.20;12.20;;;;;;;11.52;100.00;100924.75;7396490;19;20410;-55
2022/09/24 01:10:50;;;;;;;16.20;11.90;;;;;;;11.42;100.00;100933.84;7398466;19;20922;-58
2022/09/24 01:13:39;;;;;;;17.33;11.20;;;;;;;11.33;100.00;100932.66;7393718;19;20416;-58
2022/09/24 01:16:16;;;;;;;16.90;11.53;;;;;;;11.25;100.00;100934.03;7398456;19;20391;-56
2022/09/24 01:18:52;;;;;;;17.73;12.33;;;;;;;11.26;100.00;100934.91;7392170;19;20421;-52
2022/09/24 01:21:37;;;;;;;21.50;12.53;;;;;;;11.21;100.00;100948.53;7396750;19;20393;-61
2022/09/24 01:24:27;;;;;;;16.23;11.20;;;;;;;11.26;100.00;100946.13;7391903;19;20424;-53
2022/09/24 01:27:03;;;;;;;15.87;11.00;;;;;;;11.32;100.00;100951.56;7398123;19;20418;-58
2022/09/24 01:30:02;;;;;;;17.00;12.20;;;;;;;11.21;100.00;100951.13;7390316;19;20434;-57
2022/09/24 01:32:36;;;;;;;18.80;12.00;;;;;;;11.19;100.00;100946.69;7394067;19;20417;-54
2022/09/24 01:35:11;;;;;;;19.40;11.70;;;;;;;11.32;100.00;100955.81;7397322;19;20381;-58
2022/09/24 01:37:42;;;;;;;19.60;12.13;;;;;;;11.43;100.00;100962.34;7393164;19;20378;-54
2022/09/24 01:40:13;;;;;;;18.83;12.10;;;;;;;11.39;100.00;100963.00;7394694;19;20418;-61
2022/09/24 01:42:45;;;;;;;18.13;12.23;;;;;;;11.57;100.00;100960.31;7393200;19;20751;-57
2022/09/24 01:45:18;;;;;;;17.63;12.27;;;;;;;11.52;100.00;100958.34;7391140;19;20407;-57
2022/09/24 01:47:48;;;;;;;21.07;13.00;;;;;;;11.63;100.00;100962.25;7391794;19;20417;-58
2022/09/24 01:50:19;;;;;;;16.87;12.03;;;;;;;11.62;100.00;100960.50;7397404;19;20390;-61
2022/09/24 01:52:54;;;;;;;18.90;12.93;;;;;;;11.49;100.00;100956.56;7392749;19;20404;-55
2022/09/24 01:55:27;;;;;;;18.40;11.93;;;;;;;11.55;100.00;100958.50;7398554;19;20439;-59
2022/09/24 01:57:58;;;;;;;19.83;13.07;;;;;;;11.65;100.00;100950.31;7391111;19;20437;-58
2022/09/24 02:00:31;;;;;;;25.33;12.57;;;;;;;11.59;100.00;100947.47;7396498;19;20386;-58
2022/09/24 02:03:07;;;;;;;19.63;12.00;;;;;;;11.48;100.00;100945.31;7392638;19;20449;-59
2022/09/24 02:05:41;;;;;;;20.40;12.97;;;;;;;11.46;100.00;100949.56;7400966;19;20405;-62
2022/09/24 02:08:12;;;;;;;15.10;12.10;;;;;;;11.53;100.00;100949.81;7392405;19;20422;-57
2022/09/24 02:10:47;;;;;;;17.80;11.47;;;;;;;11.40;100.00;100954.47;7396531;19;20759;-58
2022/09/24 02:13:18;;;;;;;19.20;12.80;;;;;;;11.31;100.00;100961.81;7391053;19;20403;-58
2022/09/24 02:15:52;;;;;;;19.67;11.77;;;;;;;11.26;100.00;100961.63;7395776;19;20403;-53
2022/09/24 02:18:25;;;;;;;15.67;11.20;;;;;;;11.25;100.00;100965.03;7390397;19;20417;-62
2022/09/24 02:20:56;;;;;;;18.40;12.00;;;;;;;11.21;100.00;100960.56;7395677;19;20407;-61
2022/09/24 02:23:27;;;;;;;18.67;13.67;;;;;;;11.21;100.00;100969.19;7391511;19;20414;-59
2022/09/24 02:26:00;;;;;;;15.23;11.33;;;;;;;11.15;100.00;100965.44;7396150;19;20912;-60
2022/09/24 02:28:31;;;;;;;19.70;12.90;;;;;;;11.07;100.00;100972.88;7389564;19;20441;-53
2022/09/24 02:31:07;;;;;;;19.60;12.70;;;;;;;10.99;100.00;100974.25;7396089;19;20389;-62
2022/09/24 02:36:20;;;;;;;20.00;14.13;;;;;;;10.97;100.00;100968.13;7395877;19;20383;-57
2022/09/24 02:38:49;;;;;;;19.40;12.03;;;;;;;11.05;100.00;100971.91;7388709;19;20407;-58
2022/09/24 02:41:22;;;;;;;17.87;12.00;;;;;;;11.02;100.00;100976.97;7394786;19;20380;-57
2022/09/24 02:43:51;;;;;;;17.43;12.47;;;;;;;11.01;100.00;100976.06;7391012;19;20398;-58
2022/09/24 02:46:23;;;;;;;17.60;12.20;;;;;;;11.06;100.00;100969.41;7395279;19;20748;-53
2022/09/24 02:48:53;;;;;;;20.27;13.80;;;;;;;11.20;100.00;100964.84;7389247;19;20412;-56
2022/09/24 02:51:23;;;;;;;16.17;12.30;;;;;;;11.28;100.00;100964.28;7395439;19;20418;-59
2022/09/24 02:53:52;;;;;;;20.57;13.70;;;;;;;11.46;100.00;100965.06;7390401;19;20408;-58
2022/09/24 02:56:21;;;;;;;18.93;12.83;;;;;;;11.52;100.00;100963.53;7394971;19;20407;-53
2022/09/24 02:58:52;;;;;;;61.20;37.67;;;;;;;11.73;100.00;100946.31;7388848;19;20454;-58
2022/09/24 03:01:24;;;;;;;25.40;16.70;;;;;;;11.96;100.00;100955.81;7394577;19;20414;-56
2022/09/24 03:03:54;;;;;;;43.50;29.00;;;;;;;11.87;100.00;100961.50;7390293;19;20422;-55
2022/09/24 03:06:23;;;;;;;61.40;40.30;;;;;;;12.00;100.00;100953.41;7394516;19;20391;-61
2022/09/24 03:08:53;;;;;;;28.33;18.70;;;;;;;11.91;100.00;100965.06;7391704;19;20436;-55
2022/09/24 03:11:23;;;;;;;19.07;13.50;;;;;;;11.48;100.00;100971.16;7394789;19;20394;-56
2022/09/24 03:13:52;;;;;;;17.00;12.47;;;;;;;11.41;100.00;100966.56;7389655;19;21011;-56
2022/09/24 03:16:25;;;;;;;15.70;12.47;;;;;;;11.20;100.00;100975.19;7394299;19;20410;-57
2022/09/24 03:18:54;;;;;;;20.97;12.47;;;;;;;11.00;100.00;100974.31;7387747;19;20422;-60
2022/09/24 03:21:24;;;;;;;22.40;13.87;;;;;;;10.93;100.00;100980.91;7394073;19;20914;-57
2022/09/24 03:23:53;;;;;;;19.10;12.60;;;;;;;10.88;100.00;100979.81;7389971;19;20419;-55
2022/09/24 03:26:23;;;;;;;16.57;11.93;;;;;;;10.87;100.00;100977.19;7393889;19;20390;-58
2022/09/24 03:28:52;;;;;;;18.30;11.90;;;;;;;10.87;100.00;100972.00;7388821;19;20787;-59
2022/09/24 03:31:23;;;;;;;18.20;11.90;;;;;;;10.83;100.00;100965.84;7394054;19;20419;-52
2022/09/24 03:33:53;;;;;;;17.10;12.77;;;;;;;10.84;100.00;100959.84;7389451;19;20424;-56
2022/09/24 03:36:24;;;;;;;16.97;12.50;;;;;;;10.82;100.00;100958.88;7393872;19;20385;-58
2022/09/24 03:38:56;;;;;;;20.00;12.73;;;;;;;10.80;100.00;100961.41;7387456;19;20980;-57
2022/09/24 03:41:27;;;;;;;21.20;13.90;;;;;;;10.81;100.00;100982.94;7393192;19;20388;-61
2022/09/24 03:43:56;;;;;;;23.03;13.30;;;;;;;10.77;100.00;100978.47;7389203;19;20431;-56
2022/09/24 03:46:28;;;;;;;19.33;14.23;;;;;;;10.74;100.00;100973.16;7392073;19;20422;-53
2022/09/24 03:48:59;;;;;;;23.97;14.23;;;;;;;10.71;100.00;100967.88;7387181;19;20420;-57
2022/09/24 03:51:29;;;;;;;20.67;13.97;;;;;;;10.69;100.00;100965.22;7393631;19;20395;-56
2022/09/24 03:53:58;;;;;;;24.20;15.27;;;;;;;10.67;100.00;100959.97;7388590;19;21174;-56
2022/09/24 03:56:27;;;;;;;23.10;14.87;;;;;;;10.69;100.00;100957.47;7393038;19;20398;-55
2022/09/24 03:58:57;;;;;;;20.47;15.17;;;;;;;10.66;100.00;100950.47;7386653;19;20433;-55
2022/09/24 04:01:31;;;;;;;23.50;16.03;;;;;;;10.65;100.00;100950.41;7392959;19;20384;-53
2022/09/24 04:04:02;;;;;;;24.00;15.73;;;;;;;10.63;100.00;100945.19;7388308;19;20467;-55
2022/09/24 04:06:31;;;;;;;21.20;14.67;;;;;;;10.72;100.00;100936.94;7392976;19;20386;-56
2022/09/24 04:09:01;;;;;;;19.13;13.27;;;;;;;10.80;100.00;100930.44;7387219;19;20447;-59
2022/09/24 04:11:32;;;;;;;25.27;14.40;;;;;;;10.87;100.00;100933.28;7393153;19;20819;-56
2022/09/24 04:14:02;;;;;;;20.93;14.70;;;;;;;11.01;100.00;100928.69;7390854;19;20440;-52
2022/09/24 04:16:35;;;;;;;22.90;15.50;;;;;;;10.85;100.00;100919.41;7392534;19;20767;-55
2022/09/24 04:19:06;;;;;;;24.53;14.97;;;;;;;10.73;100.00;100922.38;7386530;19;20416;-51
2022/09/24 04:21:36;;;;;;;24.37;16.30;;;;;;;10.66;100.00;100921.19;7392475;19;20381;-51
2022/09/24 04:24:06;;;;;;;27.67;17.07;;;;;;;10.67;100.00;100918.69;7388051;19;20412;-57
2022/09/24 04:26:36;;;;;;;32.63;18.20;;;;;;;10.66;100.00;100916.94;7392370;19;20393;-53
2022/09/24 04:29:06;;;;;;;31.20;20.23;;;;;;;10.62;100.00;100909.84;7385929;19;20422;-57
2022/09/24 04:31:39;;;;;;;29.30;18.97;;;;;;;10.61;100.00;100910.69;7392267;19;20742;-54
2022/09/24 04:34:08;;;;;;;24.97;18.03;;;;;;;10.60;100.00;100913.19;7387732;19;20425;-53
2022/09/24 04:36:38;;;;;;;25.60;17.57;;;;;;;10.62;100.00;100911.56;7391981;19;20380;-56
2022/09/24 04:39:07;;;;;;;28.60;18.93;;;;;;;10.63;100.00;100906.50;7385215;19;20416;-60
2022/09/24 04:41:37;;;;;;;29.90;18.57;;;;;;;10.65;100.00;100903.97;7391820;19;20382;-53
2022/09/24 04:44:07;;;;;;;32.47;20.20;;;;;;;10.66;100.00;100903.13;7386094;19;20809;-55
2022/09/24 04:46:39;;;;;;;29.20;20.00;;;;;;;10.66;100.00;100909.19;7391791;19;20388;-58
2022/09/24 04:49:10;;;;;;;28.00;18.70;;;;;;;10.66;100.00;100901.44;7385223;19;20944;-59
2022/09/24 04:51:40;;;;;;;26.63;17.13;;;;;;;10.64;100.00;100905.66;7391558;19;20734;-50
2022/09/24 04:54:10;;;;;;;21.77;15.53;;;;;;;10.66;100.00;100906.63;7386664;19;20736;-56
2022/09/24 04:56:39;;;;;;;23.90;14.73;;;;;;;10.77;100.00;100899.31;7391334;19;20740;-58
2022/09/24 04:59:09;;;;;;;49.07;27.50;;;;;;;11.01;100.00;100898.63;7387941;19;20417;-55
2022/09/24 05:01:41;;;;;;;40.33;24.70;;;;;;;11.02;100.00;100889.19;7398704;19;20409;-55
2022/09/24 05:04:10;;;;;;;49.87;29.93;;;;;;;10.98;100.00;100888.16;7393417;19;20432;-57
2022/09/24 05:06:40;;;;;;;24.23;16.60;;;;;;;11.06;100.00;100865.25;7398418;19;20413;-55
2022/09/24 05:09:09;;;;;;;27.37;18.23;;;;;;;11.09;100.00;100875.72;7392927;19;20448;-57
2022/09/24 05:11:41;;;;;;;39.70;23.70;;;;;;;11.16;100.00;100869.97;7398695;19;20387;-53
2022/09/24 05:14:10;;;;;;;32.37;20.40;;;;;;;11.05;100.00;100863.47;7393289;19;20408;-52
2022/09/24 05:16:42;;;;;;;28.20;19.03;;;;;;;11.11;100.00;100868.00;7398125;19;20413;-53
2022/09/24 05:19:12;;;;;;;35.63;24.03;;;;;;;11.45;100.00;100859.91;7391877;19;20416;-56
2022/09/24 05:21:41;;;;;;;26.03;17.30;;;;;;;11.69;100.00;100855.69;7398158;19;20396;-54
2022/09/24 05:24:10;;;;;;;39.00;23.37;;;;;;;11.62;100.00;100851.97;7392782;19;20979;-59
2022/09/24 05:29:22;;;;;;;37.47;24.23;;;;;;;11.89;100.00;100853.84;7391472;19;20440;-54
2022/09/24 05:31:53;;;;;;;28.27;18.20;;;;;;;11.83;100.00;100861.38;7397577;19;20410;-58
2022/09/24 05:34:23;;;;;;;27.00;18.70;;;;;;;11.95;100.00;100864.41;7393128;19;20417;-54
2022/09/24 05:36:52;;;;;;;25.07;17.00;;;;;;;12.00;100.00;100869.78;7397820;19;20381;-52
2022/09/24 05:39:22;;;;;;;27.00;16.20;;;;;;;12.04;100.00;100876.84;7390018;19;20778;-58
2022/09/24 05:41:51;;;;;;;26.20;16.13;;;;;;;11.88;100.00;100880.53;7397374;19;20398;-52
2022/09/24 05:44:21;;;;;;;21.90;15.53;;;;;;;11.86;100.00;100887.34;7392457;19;20418;-56
2022/09/24 05:46:50;;;;;;;22.93;15.20;;;;;;;12.04;100.00;100891.50;7397264;19;20392;-59
2022/09/24 05:49:22;;;;;;;19.10;14.20;;;;;;;12.04;100.00;100896.66;7389378;19;20497;-57
2022/09/24 05:51:52;;;;;;;22.13;14.30;;;;;;;11.99;100.00;100905.09;7392996;19;20386;-58
2022/09/24 05:54:22;;;;;;;20.77;14.23;;;;;;;11.96;100.00;100905.00;7388283;19;20409;-58
2022/09/24 05:56:51;;;;;;;21.93;15.27;;;;;;;12.01;100.00;100906.03;7392491;19;20399;-54
2022/09/24 05:59:21;;;;;;;22.30;15.53;;;;;;;12.31;100.00;100909.72;7386837;19;20430;-58
2022/09/24 06:01:50;;;;;;;19.57;14.07;;;;;;;12.22;100.00;100922.34;7393576;19;20438;-56
2022/09/24 06:04:23;;;;;;;22.20;14.07;;;;;;;12.20;100.00;100918.81;7385749;19;20462;-51
2022/09/24 06:06:52;;;;;;;21.10;14.60;;;;;;;11.98;100.00;100920.53;7396728;19;20968;-59
2022/09/24 06:09:21;;;;;;;19.30;14.30;;;;;;;11.55;100.00;100930.06;7388367;19;20445;-56
2022/09/24 06:11:52;;;;;;;19.37;15.13;;;;;;;11.34;100.00;100928.38;7399783;19;20427;-59
2022/09/24 06:14:22;;;;;;;18.30;14.17;;;;;;;11.19;100.00;100924.31;7394151;19;20443;-52
2022/09/24 06:16:51;;;;;;;22.87;14.80;;;;;;;11.11;100.00;100915.38;7397009;19;20407;-52
2022/09/24 06:19:23;;;;;;;20.07;15.73;;;;;;;11.09;100.00;100896.38;7389485;19;20415;-59
2022/09/24 06:21:53;;;;;;;24.37;16.17;;;;;;;11.05;100.00;100892.78;7396282;19;20410;-60
2022/09/24 06:24:22;;;;;;;20.90;15.70;;;;;;;11.01;100.00;100885.72;7390002;19;20429;-62
2022/09/24 06:26:52;;;;;;;23.33;16.60;;;;;;;10.92;100.00;100886.19;7399427;19;20389;-55
2022/09/24 06:29:21;;;;;;;25.20;17.50;;;;;;;10.94;100.00;100897.47;7389264;19;20425;-56
2022/09/24 06:31:52;;;;;;;26.43;17.77;;;;;;;10.91;100.00;100896.44;7395669;19;21006;-55
2022/09/24 06:34:24;;;;;;;25.73;16.93;;;;;;;10.87;100.00;100885.13;7390870;19;20426;-58
2022/09/24 06:36:55;;;;;;;22.50;18.30;;;;;;;10.82;100.00;100871.13;7395628;19;20394;-59
2022/09/24 06:39:25;;;;;;;28.37;18.37;;;;;;;10.83;100.00;100857.44;7388522;19;20440;-52
2022/09/24 06:41:55;;;;;;;26.00;19.17;;;;;;;10.90;100.00;100849.13;7395761;19;20863;-59
2022/09/24 06:44:26;;;;;;;26.13;19.03;;;;;;;10.83;100.00;100821.31;7389716;19;20437;-56
2022/09/24 06:46:56;;;;;;;23.60;18.60;;;;;;;10.80;100.00;100792.75;7395314;19;20422;-56
2022/09/24 06:49:28;;;;;;;25.10;18.53;;;;;;;10.80;100.00;100769.53;7388278;19;20416;-54
2022/09/24 06:52:03;;;;;;;27.17;19.13;;;;;;;10.78;100.00;100727.31;7395380;19;20395;-59
2022/09/24 06:54:33;;;;;;;24.33;18.80;;;;;;;10.77;100.00;100713.50;7390072;19;20977;-59
2022/09/24 06:57:03;;;;;;;28.77;19.90;;;;;;;10.97;100.00;100699.66;7395177;19;20429;-56
2022/09/24 06:59:32;;;;;;;30.33;20.10;;;;;;;11.13;100.00;100673.59;7371489;19;20407;-56
2022/09/24 07:02:01;;;;;;;25.40;18.83;;;;;;;10.99;100.00;100661.84;7394425;19;20413;-56
2022/09/24 07:04:33;;;;;;;31.23;20.33;;;;;;;10.80;100.00;100658.56;7388481;19;20995;-61
2022/09/24 07:09:45;;;;;;;25.43;18.80;;;;;;;10.99;100.00;100636.03;7387191;19;20417;-58
2022/09/24 07:12:14;;;;;;;34.13;20.50;;;;;;;11.20;100.00;100612.75;7397051;19;20393;-60
2022/09/24 07:14:43;;;;;;;29.80;21.73;;;;;;;11.25;100.00;100597.41;7388591;19;20959;-58
2022/09/24 07:17:13;;;;;;;33.03;22.33;;;;;;;11.14;100.00;100584.09;7395807;19;20401;-56
2022/09/24 07:19:45;;;;;;;28.60;21.60;;;;;;;10.94;100.00;100582.53;7387133;19;20448;-55
2022/09/24 07:22:14;;;;;;;29.57;21.40;;;;;;;10.86;100.00;100577.94;7392279;19;20383;-55
2022/09/24 07:24:44;;;;;;;38.30;22.40;;;;;;;10.82;100.00;100571.75;7391381;19;20452;-56
2022/09/24 07:27:14;;;;;;;33.80;23.00;;;;;;;10.78;100.00;100570.75;7393971;19;20410;-54
2022/09/24 07:29:43;;;;;;;32.07;22.00;;;;;;;10.81;100.00;100567.41;7387035;19;20433;-58
2022/09/24 07:32:13;;;;;;;33.40;23.43;;;;;;;10.80;100.00;100568.22;7393831;19;20382;-56
2022/09/24 07:34:45;;;;;;;35.03;24.27;;;;;;;10.71;100.00;100558.44;7388062;19;20440;-53
2022/09/24 07:37:14;;;;;;;32.03;22.20;;;;;;;10.66;100.00;100555.69;7393535;19;20386;-57
2022/09/24 07:39:44;;;;;;;33.10;21.83;;;;;;;10.63;100.00;100547.84;7386278;19;20463;-55
2022/09/24 07:42:13;;;;;;;35.67;22.30;;;;;;;10.60;100.00;100539.09;7394410;19;20446;-56
2022/09/24 07:44:44;;;;;;;36.57;23.33;;;;;;;10.59;100.00;100537.34;7386680;19;20428;-58
2022/09/24 07:47:13;;;;;;;36.17;23.57;;;;;;;10.58;100.00;100538.16;7393264;19;20405;-57
2022/09/24 07:49:46;;;;;;;38.07;24.53;;;;;;;10.63;100.00;100522.06;7386429;19;20451;-55
2022/09/24 07:52:18;;;;;;;37.30;23.43;;;;;;;10.61;100.00;100445.41;7392600;19;20360;-55
2022/09/24 07:54:48;;;;;;;39.60;24.37;;;;;;;10.58;100.00;100409.16;7387808;19;20442;-56
2022/09/24 07:57:18;;;;;;;36.90;23.97;;;;;;;10.60;100.00;100374.88;7393244;19;20764;-52
2022/09/24 07:59:47;;;;;;;37.60;22.83;;;;;;;10.59;100.00;100383.44;7385199;19;21028;-57
2022/09/24 08:02:18;;;;;;;34.17;22.70;;;;;;;10.63;100.00;100402.47;7392964;19;20375;-51
2022/09/24 08:04:50;;;;;;;38.40;24.67;;;;;;;10.67;100.00;100417.25;7386314;19;20436;-57
2022/09/24 08:07:20;;;;;;;33.07;22.93;;;;;;;10.71;100.00;100413.94;7397418;19;20670;-57
2022/09/24 08:09:49;;;;;;;34.87;23.03;;;;;;;10.71;100.00;100393.31;7385283;19;20467;-55
2022/09/24 08:12:18;;;;;;;37.97;23.40;;;;;;;10.71;100.00;100398.47;7392394;19;20419;-56
2022/09/24 08:14:48;;;;;;;38.60;24.20;;;;;;;10.73;100.00;100403.69;7387394;19;20409;-59
2022/09/24 08:17:17;;;;;;;38.20;23.73;;;;;;;10.75;100.00;100409.78;7394627;19;20391;-55
2022/09/24 08:19:51;;;;;;;34.83;23.77;;;;;;;10.76;100.00;100419.25;7385347;19;20409;-58
2022/09/24 08:22:20;;;;;;;34.57;22.90;;;;;;;10.79;100.00;100427.13;7393797;19;20393;-56
2022/09/24 08:24:50;;;;;;;31.93;22.03;;;;;;;10.78;100.00;100421.06;7385566;19;20985;-55
2022/09/24 08:27:19;;;;;;;34.50;23.10;;;;;;;10.79;100.00;100421.97;7392543;19;20393;-61
2022/09/24 08:29:48;;;;;;;35.53;23.03;;;;;;;10.85;100.00;100421.28;7385013;19;20444;-57
2022/09/24 08:32:18;;;;;;;35.30;21.77;;;;;;;10.87;100.00;100424.81;7393350;19;20747;-55
2022/09/24 08:34:50;;;;;;;37.10;24.73;;;;;;;10.87;100.00;100428.25;7394081;19;20421;-57
2022/09/24 08:37:21;;;;;;;39.90;25.40;;;;;;;10.86;100.00;100429.09;7399779;19;20741;-57
2022/09/24 08:39:50;;;;;;;40.47;24.77;;;;;;;10.88;100.00;100424.84;7390768;19;20415;-60
2022/09/24 08:42:30;;;;;;;33.73;22.83;;;;;;;10.88;100.00;100417.13;7399143;19;20810;-60
2022/09/24 08:47:47;;;;;;;35.97;22.27;;;;;;;10.74;100.00;100428.66;7391317;19;20381;-55
2022/09/24 08:50:22;;;;;;;34.23;21.90;;;;;;;10.79;100.00;100442.59;7396125;19;20429;-58
2022/09/24 08:53:13;;;;;;;35.27;23.17;;;;;;;10.85;100.00;100441.94;7391381;19;20408;-55
2022/09/24 08:55:46;;;;;;;34.27;23.40;;;;;;;10.85;100.00;100447.09;7398940;19;20386;-57
2022/09/24 08:58:31;;;;;;;39.03;24.47;;;;;;;10.87;100.00;100438.59;7393261;19;20432;-58
2022/09/24 09:01:07;;;;;;;35.20;23.73;;;;;;;10.93;100.00;100441.38;7398487;19;20384;-57
2022/09/24 09:03:39;;;;;;;36.17;22.83;;;;;;;10.88;100.00;100442.94;7393914;19;20425;-56
2022/09/24 09:06:25;;;;;;;36.13;24.20;;;;;;;10.87;100.00;100443.75;7396211;19;20736;-54
2022/09/24 09:09:00;;;;;;;33.27;22.30;;;;;;;10.88;100.00;100442.06;7390822;19;20457;-58
2022/09/24 09:11:38;;;;;;;37.57;23.30;;;;;;;10.90;100.00;100449.03;7398471;19;20391;-58
2022/09/24 09:14:14;;;;;;;35.20;24.07;;;;;;;10.93;100.00;100451.72;7396015;19;20469;-58
2022/09/24 09:16:49;;;;;;;43.70;25.93;;;;;;;10.92;100.00;100452.53;7398943;19;20391;-55
2022/09/24 09:19:19;;;;;;;39.70;23.70;;;;;;;11.00;100.00;100452.81;7391178;19;20411;-55
2022/09/24 09:21:54;;;;;;;41.80;25.90;;;;;;;11.05;100.00;100445.22;7398253;19;20408;-58
2022/09/24 09:24:30;;;;;;;42.87;24.57;;;;;;;11.10;100.00;100459.19;7395475;19;20440;-56
2022/09/24 09:26:59;;;;;;;38.63;23.60;;;;;;;11.04;100.00;100444.34;7398170;19;20389;-52
2022/09/24 09:29:29;;;;;;;35.77;24.70;;;;;;;11.06;100.00;100444.41;7390598;19;20492;-59
2022/09/24 09:32:06;;;;;;;42.73;25.97;;;;;;;11.10;100.00;100448.84;7397719;19;20940;-58
2022/09/24 09:34:49;;;;;;;38.57;25.57;;;;;;;11.14;100.00;100440.41;7392922;19;20779;-57
2022/09/24 09:37:28;;;;;;;40.30;23.87;;;;;;;11.12;100.00;100442.03;7397638;19;20397;-57
2022/09/24 09:40:08;;;;;;;37.20;24.10;;;;;;;11.16;100.00;100449.06;7393521;19;20795;-54
2022/09/24 09:42:39;;;;;;;36.87;24.67;;;;;;;11.14;100.00;100440.41;7393202;19;20756;-55
2022/09/24 09:45:27;;;;;;;38.07;24.80;;;;;;;11.19;100.00;100436.25;7394617;19;20388;-56
2022/09/24 09:47:58;;;;;;;41.10;25.83;;;;;;;11.23;100.00;100442.41;7391438;19;20405;-56
2022/09/24 09:50:30;;;;;;;49.73;26.97;;;;;;;11.33;100.00;100446.16;7397579;19;20385;-56
2022/09/24 09:53:03;;;;;;;41.63;24.97;;;;;;;11.16;100.00;100438.75;7392079;19;20915;-53
2022/09/24 09:55:36;;;;;;;42.73;25.57;;;;;;;11.24;100.00;100439.00;7397096;19;20403;-55
2022/09/24 09:58:18;;;;;;;44.70;26.90;;;;;;;11.28;100.00;100442.56;7388570;19;20421;-58
2022/09/24 10:00:48;;;;;;;36.83;24.67;;;;;;;11.31;100.00;100448.72;7396702;19;20381;-56
2022/09/24 10:03:27;;;;;;;37.80;24.60;;;;;;;11.34;100.00;100447.94;7392058;19;20993;-56
2022/09/24 10:05:58;;;;;;;38.83;24.67;;;;;;;11.31;100.00;100453.88;7398052;19;20401;-59
2022/09/24 10:08:30;;;;;;;38.17;24.70;;;;;;;11.23;100.00;100442.41;7390945;19;20533;-58
2022/09/24 10:11:01;;;;;;;40.87;24.97;;;;;;;11.26;100.00;100445.09;7396810;19;20926;-60
2022/09/24 10:13:32;;;;;;;38.67;24.73;;;;;;;11.18;100.00;100439.66;7391361;19;20437;-61
2022/09/24 10:16:03;;;;;;;39.57;24.23;;;;;;;11.24;100.00;100445.88;7397648;19;20398;-57
2022/09/24 10:18:35;;;;;;;38.47;23.33;;;;;;;11.24;100.00;100451.03;7392632;19;20419;-51
2022/09/24 10:21:07;;;;;;;34.37;22.70;;;;;;;11.15;100.00;100457.66;7396100;19;20384;-53
2022/09/24 10:23:42;;;;;;;41.87;25.20;;;;;;;11.20;100.00;100453.53;7390930;19;20423;-56
2022/09/24 10:26:12;;;;;;;39.67;25.40;;;;;;;11.26;100.00;100450.25;7394679;19;20387;-56
2022/09/24 10:31:27;;;;;;;43.73;26.80;;;;;;;11.37;100.00;100445.44;7396016;19;20715;-62
2022/09/24 10:33:59;;;;;;;45.80;28.83;;;;;;;11.32;100.00;100454.75;7390612;19;20417;-54
2022/09/24 10:36:31;;;;;;;41.77;26.77;;;;;;;11.39;100.00;100453.25;7396456;19;20411;-59
2022/09/24 10:39:13;;;;;;;47.43;29.67;;;;;;;11.47;100.00;100451.78;7388943;19;20417;-60
2022/09/24 10:41:48;;;;;;;44.37;27.40;;;;;;;11.47;100.00;100447.53;7395104;19;20377;-58
2022/09/24 10:44:19;;;;;;;38.73;23.53;;;;;;;12.00;100.00;100445.75;7390859;19;20408;-57
2022/09/24 10:47:08;;;;;;;44.70;26.37;;;;;;;11.95;100.00;100429.19;7394240;19;20384;-54
2022/09/24 10:49:53;;;;;;;42.43;27.97;;;;;;;11.83;100.00;100417.66;7388422;19;20441;-56
2022/09/24 10:52:36;;;;;;;50.50;30.97;;;;;;;12.25;100.00;100400.81;7395286;19;20414;-57
2022/09/24 10:55:21;;;;;;;41.73;27.30;;;;;;;12.06;100.00;100383.91;7392541;19;20422;-59
2022/09/24 10:58:02;;;;;;;54.37;33.70;;;;;;;12.16;100.00;100366.94;7388146;19;20943;-59
2022/09/24 11:00:47;;;;;;;45.47;28.77;;;;;;;12.19;100.00;100366.16;7395666;19;20366;-59
2022/09/24 11:03:45;;;;;;;51.73;33.13;;;;;;;12.23;100.00;100361.13;7391967;19;20403;-61
2022/09/24 11:06:26;;;;;;;45.83;29.17;;;;;;;12.23;100.00;100363.69;7390788;19;20387;-58
2022/09/24 11:09:11;;;;;;;43.80;26.90;;;;;;;12.17;100.00;100355.75;7391279;19;20434;-61
2022/09/24 11:11:57;;;;;;;46.30;30.60;;;;;;;12.56;100.00;100354.22;7383009;19;20414;-60
2022/09/24 11:14:57;;;;;;;41.60;27.77;;;;;;;12.14;100.00;100355.66;7374257;19;20426;-58
2022/09/24 11:17:57;;;;;;;40.27;26.00;;;;;;;12.47;100.00;100357.47;7391710;19;20406;-60
2022/09/24 11:20:37;;;;;;;44.60;27.97;;;;;;;12.75;100.00;100355.59;7377962;19;20442;-63
2022/09/24 11:23:44;;;;;;;44.93;27.07;;;;;;;12.86;100.00;100347.25;7398778;19;20459;-57
2022/09/24 11:26:27;;;;;;;40.93;26.17;;;;;;;12.76;100.00;100347.00;7383111;19;20446;-61
2022/09/24 11:29:11;;;;;;;45.20;27.30;;;;;;;12.29;100.00;100360.41;7393933;19;20417;-54
2022/09/24 11:31:43;;;;;;;39.67;27.10;;;;;;;12.67;100.00;100370.94;7390158;19;20458;-55
2022/09/24 11:34:38;;;;;;;42.87;26.60;;;;;;;12.33;100.00;100387.22;7393368;19;20401;-62
2022/09/24 11:37:23;;;;;;;43.77;26.20;;;;;;;12.13;100.00;100405.63;7388279;19;20410;-61
2022/09/24 11:40:12;;;;;;;40.07;26.10;;;;;;;12.08;100.00;100422.72;7379771;19;20438;-61
2022/09/24 11:42:55;;;;;;;43.17;27.10;;;;;;;12.43;100.00;100426.34;7392433;19;20407;-60